sensor_id;sensor_type;location;lat;lon;timestamp;P1;durP1;ratioP1;P2;durP2;ratioP2
36211;SDS011;22247;48.586;13.492;2024-03-29T00:01:27;94.28;;;13.45;;
36211;SDS011;22247;48.586;13.492;2024-03-29T00:03:53;99.00;;;13.85;;
36211;SDS011;22247;48.586;13.492;2024-03-29T00:06:18;227.32;;;17.33;;
36211;SDS011;22247;48.586;13.492;2024-03-29T00:08:43;257.90;;;19.02;;
36211;SDS011;22247;48.586;13.492;2024-03-29T00:11:10;74.03;;;12.02;;
36211;SDS011;22247;48.586;13.492;2024-03-29T00:13:34;184.30;;;17.70;;
36211;SDS011;22247;48.586;13.492;2024-03-29T00:16:04;43.75;;;10.95;;
36211;SDS011;22247;48.586;13.492;2024-03-29T00:18:31;53.10;;;10.48;;
36211;SDS011;22247;48.586;13.492;2024-03-29T00:20:55;59.60;;;11.25;;
36211;SDS011;22247;48.586;13.492;2024-03-29T00:23:23;92.50;;;12.13;;
36211;SDS011;22247;48.586;13.492;2024-03-29T00:25:50;97.38;;;11.48;;
36211;SDS011;22247;48.586;13.492;2024-03-29T00:28:15;59.60;;;9.98;;
36211;SDS011;22247;48.586;13.492;2024-03-29T00:30:40;57.95;;;8.95;;
36211;SDS011;22247;48.586;13.492;2024-03-29T00:33:04;123.20;;;11.25;;
36211;SDS011;22247;48.586;13.492;2024-03-29T00:35:29;120.30;;;13.90;;
36211;SDS011;22247;48.586;13.492;2024-03-29T00:37:54;90.07;;;11.80;;
36211;SDS011;22247;48.586;13.492;2024-03-29T00:40:19;82.97;;;12.23;;
36211;SDS011;22247;48.586;13.492;2024-03-29T00:42:44;172.07;;;11.38;;
36211;SDS011;22247;48.586;13.492;2024-03-29T00:47:34;84.00;;;8.50;;
36211;SDS011;22247;48.586;13.492;2024-03-29T00:49:59;59.75;;;7.43;;
36211;SDS011;22247;48.586;13.492;2024-03-29T00:52:24;86.55;;;7.95;;
36211;SDS011;22247;48.586;13.492;2024-03-29T00:54:49;154.05;;;12.15;;
36211;SDS011;22247;48.586;13.492;2024-03-29T00:57:16;90.35;;;10.48;;
36211;SDS011;22247;48.586;13.492;2024-03-29T00:59:44;84.40;;;11.30;;
36211;SDS011;22247;48.586;13.492;2024-03-29T01:02:12;186.77;;;18.25;;
36211;SDS011;22247;48.586;13.492;2024-03-29T01:04:40;77.32;;;9.98;;
36211;SDS011;22247;48.586;13.492;2024-03-29T01:07:06;35.72;;;7.78;;
36211;SDS011;22247;48.586;13.492;2024-03-29T01:09:33;54.22;;;9.18;;
36211;SDS011;22247;48.586;13.492;2024-03-29T01:11:58;22.83;;;7.43;;
36211;SDS011;22247;48.586;13.492;2024-03-29T01:14:25;37.65;;;7.22;;
36211;SDS011;22247;48.586;13.492;2024-03-29T01:16:50;56.60;;;10.43;;
36211;SDS011;22247;48.586;13.492;2024-03-29T01:19:17;24.58;;;9.05;;
36211;SDS011;22247;48.586;13.492;2024-03-29T01:21:42;33.83;;;9.30;;
36211;SDS011;22247;48.586;13.492;2024-03-29T01:24:06;19.00;;;8.02;;
36211;SDS011;22247;48.586;13.492;2024-03-29T01:26:34;18.02;;;8.10;;
36211;SDS011;22247;48.586;13.492;2024-03-29T01:28:59;18.83;;;9.30;;
36211;SDS011;22247;48.586;13.492;2024-03-29T01:31:26;30.85;;;9.15;;
36211;SDS011;22247;48.586;13.492;2024-03-29T01:33:53;14.50;;;7.97;;
36211;SDS011;22247;48.586;13.492;2024-03-29T01:36:21;19.90;;;8.23;;
36211;SDS011;22247;48.586;13.492;2024-03-29T01:38:48;18.48;;;8.27;;
36211;SDS011;22247;48.586;13.492;2024-03-29T01:41:16;12.52;;;7.00;;
36211;SDS011;22247;48.586;13.492;2024-03-29T01:43:40;15.40;;;7.55;;
36211;SDS011;22247;48.586;13.492;2024-03-29T01:46:07;14.65;;;6.85;;
36211;SDS011;22247;48.586;13.492;2024-03-29T01:48:32;14.73;;;8.00;;
36211;SDS011;22247;48.586;13.492;2024-03-29T01:51:00;14.90;;;7.78;;
36211;SDS011;22247;48.586;13.492;2024-03-29T01:53:25;13.75;;;6.60;;
36211;SDS011;22247;48.586;13.492;2024-03-29T01:55:52;25.33;;;6.97;;
36211;SDS011;22247;48.586;13.492;2024-03-29T01:58:20;16.38;;;7.82;;
36211;SDS011;22247;48.586;13.492;2024-03-29T02:00:53;16.60;;;6.47;;
36211;SDS011;22247;48.586;13.492;2024-03-29T02:03:24;13.10;;;6.80;;
36211;SDS011;22247;48.586;13.492;2024-03-29T02:05:49;10.50;;;6.13;;
36211;SDS011;22247;48.586;13.492;2024-03-29T02:08:14;10.80;;;5.93;;
36211;SDS011;22247;48.586;13.492;2024-03-29T02:10:39;11.57;;;6.65;;
36211;SDS011;22247;48.586;13.492;2024-03-29T02:13:04;12.18;;;6.07;;
36211;SDS011;22247;48.586;13.492;2024-03-29T02:15:31;12.05;;;6.05;;
36211;SDS011;22247;48.586;13.492;2024-03-29T02:17:58;11.68;;;6.00;;
36211;SDS011;22247;48.586;13.492;2024-03-29T02:20:23;11.93;;;6.35;;
36211;SDS011;22247;48.586;13.492;2024-03-29T02:22:53;13.35;;;6.88;;
36211;SDS011;22247;48.586;13.492;2024-03-29T02:25:25;13.38;;;6.50;;
36211;SDS011;22247;48.586;13.492;2024-03-29T02:30:17;13.18;;;6.65;;
36211;SDS011;22247;48.586;13.492;2024-03-29T02:32:45;10.70;;;5.78;;
36211;SDS011;22247;48.586;13.492;2024-03-29T02:35:12;9.98;;;4.97;;
36211;SDS011;22247;48.586;13.492;2024-03-29T02:37:39;8.45;;;4.90;;
36211;SDS011;22247;48.586;13.492;2024-03-29T02:40:04;8.98;;;4.63;;
36211;SDS011;22247;48.586;13.492;2024-03-29T02:42:34;10.32;;;4.65;;
36211;SDS011;22247;48.586;13.492;2024-03-29T02:45:00;7.03;;;3.90;;
36211;SDS011;22247;48.586;13.492;2024-03-29T02:47:25;7.72;;;3.92;;
36211;SDS011;22247;48.586;13.492;2024-03-29T02:49:52;6.70;;;3.67;;
36211;SDS011;22247;48.586;13.492;2024-03-29T02:52:16;8.52;;;4.20;;
36211;SDS011;22247;48.586;13.492;2024-03-29T02:54:41;9.57;;;4.13;;
36211;SDS011;22247;48.586;13.492;2024-03-29T02:57:08;6.63;;;3.40;;
36211;SDS011;22247;48.586;13.492;2024-03-29T02:59:33;6.47;;;3.58;;
36211;SDS011;22247;48.586;13.492;2024-03-29T03:01:58;11.55;;;3.50;;
36211;SDS011;22247;48.586;13.492;2024-03-29T03:04:25;6.90;;;3.90;;
36211;SDS011;22247;48.586;13.492;2024-03-29T03:06:52;7.20;;;3.60;;
36211;SDS011;22247;48.586;13.492;2024-03-29T03:09:17;8.07;;;3.97;;
36211;SDS011;22247;48.586;13.492;2024-03-29T03:12:01;5.82;;;3.25;;
36211;SDS011;22247;48.586;13.492;2024-03-29T03:14:28;10.43;;;4.95;;
36211;SDS011;22247;48.586;13.492;2024-03-29T03:16:59;11.48;;;5.53;;
36211;SDS011;22247;48.586;13.492;2024-03-29T03:19:24;15.45;;;6.15;;
36211;SDS011;22247;48.586;13.492;2024-03-29T03:21:50;11.50;;;5.82;;
36211;SDS011;22247;48.586;13.492;2024-03-29T03:24:14;12.18;;;6.60;;
36211;SDS011;22247;48.586;13.492;2024-03-29T03:26:41;13.20;;;6.57;;
36211;SDS011;22247;48.586;13.492;2024-03-29T03:29:08;19.30;;;8.38;;
36211;SDS011;22247;48.586;13.492;2024-03-29T03:31:36;15.40;;;7.60;;
36211;SDS011;22247;48.586;13.492;2024-03-29T03:34:01;19.38;;;8.13;;
36211;SDS011;22247;48.586;13.492;2024-03-29T03:36:28;17.77;;;9.15;;
36211;SDS011;22247;48.586;13.492;2024-03-29T03:38:55;18.75;;;9.30;;
36211;SDS011;22247;48.586;13.492;2024-03-29T03:41:20;17.60;;;9.00;;
36211;SDS011;22247;48.586;13.492;2024-03-29T03:43:44;18.05;;;8.65;;
36211;SDS011;22247;48.586;13.492;2024-03-29T03:46:09;16.20;;;8.00;;
36211;SDS011;22247;48.586;13.492;2024-03-29T03:48:34;17.20;;;8.65;;
36211;SDS011;22247;48.586;13.492;2024-03-29T03:50:59;18.33;;;7.75;;
36211;SDS011;22247;48.586;13.492;2024-03-29T03:53:24;17.02;;;7.32;;
36211;SDS011;22247;48.586;13.492;2024-03-29T03:55:48;14.38;;;6.95;;
36211;SDS011;22247;48.586;13.492;2024-03-29T03:58:15;19.60;;;8.10;;
36211;SDS011;22247;48.586;13.492;2024-03-29T04:00:40;17.75;;;9.73;;
36211;SDS011;22247;48.586;13.492;2024-03-29T04:05:29;20.50;;;9.35;;
36211;SDS011;22247;48.586;13.492;2024-03-29T04:07:55;18.73;;;10.40;;
36211;SDS011;22247;48.586;13.492;2024-03-29T04:10:20;24.00;;;11.27;;
36211;SDS011;22247;48.586;13.492;2024-03-29T04:12:44;26.17;;;10.98;;
36211;SDS011;22247;48.586;13.492;2024-03-29T04:15:09;25.83;;;11.48;;
36211;SDS011;22247;48.586;13.492;2024-03-29T04:17:36;23.08;;;10.90;;
36211;SDS011;22247;48.586;13.492;2024-03-29T04:20:03;24.92;;;11.23;;
36211;SDS011;22247;48.586;13.492;2024-03-29T04:22:30;22.23;;;10.38;;
36211;SDS011;22247;48.586;13.492;2024-03-29T04:25:00;23.15;;;10.32;;
36211;SDS011;22247;48.586;13.492;2024-03-29T04:27:29;24.77;;;9.95;;
36211;SDS011;22247;48.586;13.492;2024-03-29T04:29:54;19.55;;;9.93;;
36211;SDS011;22247;48.586;13.492;2024-03-29T04:34:46;19.45;;;9.55;;
36211;SDS011;22247;48.586;13.492;2024-03-29T04:37:15;21.70;;;9.25;;
36211;SDS011;22247;48.586;13.492;2024-03-29T04:39:41;22.95;;;8.57;;
36211;SDS011;22247;48.586;13.492;2024-03-29T04:42:12;23.58;;;10.43;;
36211;SDS011;22247;48.586;13.492;2024-03-29T04:44:36;22.92;;;10.80;;
36211;SDS011;22247;48.586;13.492;2024-03-29T04:47:04;23.88;;;9.57;;
36211;SDS011;22247;48.586;13.492;2024-03-29T04:49:29;19.40;;;9.75;;
36211;SDS011;22247;48.586;13.492;2024-03-29T04:52:06;15.50;;;7.93;;
36211;SDS011;22247;48.586;13.492;2024-03-29T04:54:32;19.17;;;8.95;;
36211;SDS011;22247;48.586;13.492;2024-03-29T04:56:59;19.92;;;9.52;;
36211;SDS011;22247;48.586;13.492;2024-03-29T04:59:30;18.42;;;9.50;;
36211;SDS011;22247;48.586;13.492;2024-03-29T05:01:58;21.38;;;8.95;;
36211;SDS011;22247;48.586;13.492;2024-03-29T05:04:25;16.83;;;8.43;;
36211;SDS011;22247;48.586;13.492;2024-03-29T05:06:54;19.75;;;8.05;;
36211;SDS011;22247;48.586;13.492;2024-03-29T05:09:25;20.58;;;9.50;;
36211;SDS011;22247;48.586;13.492;2024-03-29T05:11:50;18.75;;;9.02;;
36211;SDS011;22247;48.586;13.492;2024-03-29T05:14:15;21.83;;;9.23;;
36211;SDS011;22247;48.586;13.492;2024-03-29T05:16:44;18.70;;;8.43;;
36211;SDS011;22247;48.586;13.492;2024-03-29T05:19:09;19.00;;;8.48;;
36211;SDS011;22247;48.586;13.492;2024-03-29T05:21:34;20.85;;;8.75;;
36211;SDS011;22247;48.586;13.492;2024-03-29T05:23:59;19.35;;;8.40;;
36211;SDS011;22247;48.586;13.492;2024-03-29T05:26:24;17.73;;;8.23;;
36211;SDS011;22247;48.586;13.492;2024-03-29T05:28:49;17.90;;;7.35;;
36211;SDS011;22247;48.586;13.492;2024-03-29T05:31:14;17.50;;;7.97;;
36211;SDS011;22247;48.586;13.492;2024-03-29T05:36:05;14.50;;;6.60;;
36211;SDS011;22247;48.586;13.492;2024-03-29T05:38:32;14.60;;;7.15;;
36211;SDS011;22247;48.586;13.492;2024-03-29T05:40:57;17.88;;;6.93;;
36211;SDS011;22247;48.586;13.492;2024-03-29T05:45:51;12.82;;;6.40;;
36211;SDS011;22247;48.586;13.492;2024-03-29T05:48:16;9.48;;;5.30;;
36211;SDS011;22247;48.586;13.492;2024-03-29T05:50:43;12.75;;;5.13;;
36211;SDS011;22247;48.586;13.492;2024-03-29T05:53:09;12.35;;;6.25;;
36211;SDS011;22247;48.586;13.492;2024-03-29T05:55:34;9.27;;;4.85;;
36211;SDS011;22247;48.586;13.492;2024-03-29T05:58:01;8.13;;;4.25;;
36211;SDS011;22247;48.586;13.492;2024-03-29T06:00:26;8.13;;;4.70;;
36211;SDS011;22247;48.586;13.492;2024-03-29T06:05:19;7.32;;;3.25;;
36211;SDS011;22247;48.586;13.492;2024-03-29T06:10:08;8.23;;;2.45;;
36211;SDS011;22247;48.586;13.492;2024-03-29T06:12:34;6.10;;;2.90;;
36211;SDS011;22247;48.586;13.492;2024-03-29T06:15:00;3.90;;;2.40;;
36211;SDS011;22247;48.586;13.492;2024-03-29T06:17:43;3.97;;;2.40;;
36211;SDS011;22247;48.586;13.492;2024-03-29T06:20:09;5.38;;;2.47;;
36211;SDS011;22247;48.586;13.492;2024-03-29T06:22:34;5.50;;;3.03;;
36211;SDS011;22247;48.586;13.492;2024-03-29T06:25:01;4.80;;;2.25;;
36211;SDS011;22247;48.586;13.492;2024-03-29T06:27:28;5.65;;;2.22;;
36211;SDS011;22247;48.586;13.492;2024-03-29T06:29:53;5.50;;;1.90;;
36211;SDS011;22247;48.586;13.492;2024-03-29T06:32:20;3.30;;;1.63;;
36211;SDS011;22247;48.586;13.492;2024-03-29T06:34:47;4.07;;;1.77;;
36211;SDS011;22247;48.586;13.492;2024-03-29T06:37:12;2.33;;;1.33;;
36211;SDS011;22247;48.586;13.492;2024-03-29T06:39:39;4.28;;;1.35;;
36211;SDS011;22247;48.586;13.492;2024-03-29T06:42:03;4.03;;;1.40;;
36211;SDS011;22247;48.586;13.492;2024-03-29T06:44:31;2.47;;;1.00;;
36211;SDS011;22247;48.586;13.492;2024-03-29T06:46:58;5.28;;;1.75;;
36211;SDS011;22247;48.586;13.492;2024-03-29T06:49:26;1.88;;;0.90;;
36211;SDS011;22247;48.586;13.492;2024-03-29T06:51:51;1.63;;;1.00;;
36211;SDS011;22247;48.586;13.492;2024-03-29T06:54:20;4.95;;;0.90;;
36211;SDS011;22247;48.586;13.492;2024-03-29T06:56:50;1.02;;;0.40;;
36211;SDS011;22247;48.586;13.492;2024-03-29T06:59:15;4.13;;;0.63;;
36211;SDS011;22247;48.586;13.492;2024-03-29T07:01:39;0.93;;;0.47;;
36211;SDS011;22247;48.586;13.492;2024-03-29T07:04:06;0.90;;;0.50;;
36211;SDS011;22247;48.586;13.492;2024-03-29T07:06:31;5.95;;;0.40;;
36211;SDS011;22247;48.586;13.492;2024-03-29T07:08:56;1.83;;;0.43;;
36211;SDS011;22247;48.586;13.492;2024-03-29T07:11:20;2.33;;;0.30;;
36211;SDS011;22247;48.586;13.492;2024-03-29T07:13:45;0.90;;;0.20;;
36211;SDS011;22247;48.586;13.492;2024-03-29T07:16:09;0.40;;;0.30;;
36211;SDS011;22247;48.586;13.492;2024-03-29T07:18:34;0.30;;;0.20;;
36211;SDS011;22247;48.586;13.492;2024-03-29T07:23:26;2.00;;;0.20;;
36211;SDS011;22247;48.586;13.492;2024-03-29T07:28:25;1.20;;;0.20;;
36211;SDS011;22247;48.586;13.492;2024-03-29T07:30:53;1.55;;;0.63;;
36211;SDS011;22247;48.586;13.492;2024-03-29T07:35:47;2.22;;;0.45;;
36211;SDS011;22247;48.586;13.492;2024-03-29T07:40:43;2.22;;;0.40;;
36211;SDS011;22247;48.586;13.492;2024-03-29T07:43:08;3.13;;;0.90;;
36211;SDS011;22247;48.586;13.492;2024-03-29T07:45:33;2.47;;;0.93;;
36211;SDS011;22247;48.586;13.492;2024-03-29T07:47:58;1.75;;;0.63;;
36211;SDS011;22247;48.586;13.492;2024-03-29T07:50:25;3.83;;;1.08;;
36211;SDS011;22247;48.586;13.492;2024-03-29T07:55:15;1.55;;;0.30;;
36211;SDS011;22247;48.586;13.492;2024-03-29T08:00:08;0.65;;;0.17;;
36211;SDS011;22247;48.586;13.492;2024-03-29T08:02:34;2.15;;;0.20;;
36211;SDS011;22247;48.586;13.492;2024-03-29T08:07:25;0.60;;;0.20;;
36211;SDS011;22247;48.586;13.492;2024-03-29T08:09:53;2.10;;;0.30;;
36211;SDS011;22247;48.586;13.492;2024-03-29T08:12:18;0.60;;;0.35;;
36211;SDS011;22247;48.586;13.492;2024-03-29T08:14:43;0.73;;;0.20;;
36211;SDS011;22247;48.586;13.492;2024-03-29T08:17:10;0.98;;;0.30;;
36211;SDS011;22247;48.586;13.492;2024-03-29T08:22:00;0.60;;;0.20;;
36211;SDS011;22247;48.586;13.492;2024-03-29T08:24:29;0.25;;;0.10;;
36211;SDS011;22247;48.586;13.492;2024-03-29T08:26:54;2.40;;;0.20;;
36211;SDS011;22247;48.586;13.492;2024-03-29T08:31:47;1.50;;;0.20;;
36211;SDS011;22247;48.586;13.492;2024-03-29T08:36:40;2.83;;;0.30;;
36211;SDS011;22247;48.586;13.492;2024-03-29T08:39:07;1.00;;;0.30;;
36211;SDS011;22247;48.586;13.492;2024-03-29T08:41:33;2.15;;;0.30;;
36211;SDS011;22247;48.586;13.492;2024-03-29T08:44:03;0.10;;;0.10;;
36211;SDS011;22247;48.586;13.492;2024-03-29T08:46:28;1.15;;;0.20;;
36211;SDS011;22247;48.586;13.492;2024-03-29T08:48:55;0.60;;;0.20;;
36211;SDS011;22247;48.586;13.492;2024-03-29T08:53:48;0.10;;;0.10;;
36211;SDS011;22247;48.586;13.492;2024-03-29T08:56:14;1.58;;;0.20;;
36211;SDS011;22247;48.586;13.492;2024-03-29T08:58:39;1.15;;;0.20;;
36211;SDS011;22247;48.586;13.492;2024-03-29T09:03:29;0.67;;;0.20;;
36211;SDS011;22247;48.586;13.492;2024-03-29T09:05:55;2.55;;;0.15;;
36211;SDS011;22247;48.586;13.492;2024-03-29T09:10:45;3.17;;;0.20;;
36211;SDS011;22247;48.586;13.492;2024-03-29T09:13:13;0.30;;;0.10;;
36211;SDS011;22247;48.586;13.492;2024-03-29T09:15:40;0.95;;;0.30;;
36211;SDS011;22247;48.586;13.492;2024-03-29T09:18:06;4.63;;;0.30;;
36211;SDS011;22247;48.586;13.492;2024-03-29T09:20:43;0.60;;;0.17;;
36211;SDS011;22247;48.586;13.492;2024-03-29T09:23:08;2.65;;;0.38;;
36211;SDS011;22247;48.586;13.492;2024-03-29T09:28:01;0.40;;;0.20;;
36211;SDS011;22247;48.586;13.492;2024-03-29T09:30:28;0.75;;;0.30;;
36211;SDS011;22247;48.586;13.492;2024-03-29T09:35:18;0.53;;;0.20;;
36211;SDS011;22247;48.586;13.492;2024-03-29T09:37:43;0.40;;;0.20;;
36211;SDS011;22247;48.586;13.492;2024-03-29T09:42:33;2.53;;;0.57;;
36211;SDS011;22247;48.586;13.492;2024-03-29T09:45:02;0.52;;;0.30;;
36211;SDS011;22247;48.586;13.492;2024-03-29T09:47:42;2.78;;;0.60;;
36211;SDS011;22247;48.586;13.492;2024-03-29T09:50:07;0.73;;;0.20;;
36211;SDS011;22247;48.586;13.492;2024-03-29T09:52:36;1.13;;;0.20;;
36211;SDS011;22247;48.586;13.492;2024-03-29T09:55:02;1.30;;;0.57;;
36211;SDS011;22247;48.586;13.492;2024-03-29T09:57:27;0.22;;;0.15;;
36211;SDS011;22247;48.586;13.492;2024-03-29T09:59:56;4.57;;;0.43;;
36211;SDS011;22247;48.586;13.492;2024-03-29T10:02:21;0.20;;;0.10;;
36211;SDS011;22247;48.586;13.492;2024-03-29T10:04:48;0.35;;;0.20;;
36211;SDS011;22247;48.586;13.492;2024-03-29T10:07:13;0.77;;;0.20;;
36211;SDS011;22247;48.586;13.492;2024-03-29T10:09:41;0.52;;;0.32;;
36211;SDS011;22247;48.586;13.492;2024-03-29T10:12:08;0.50;;;0.30;;
36211;SDS011;22247;48.586;13.492;2024-03-29T10:16:58;0.70;;;0.23;;
36211;SDS011;22247;48.586;13.492;2024-03-29T10:19:23;0.52;;;0.17;;
36211;SDS011;22247;48.586;13.492;2024-03-29T10:24:13;1.90;;;0.73;;
36211;SDS011;22247;48.586;13.492;2024-03-29T10:26:39;2.80;;;0.38;;
36211;SDS011;22247;48.586;13.492;2024-03-29T10:29:04;0.57;;;0.20;;
36211;SDS011;22247;48.586;13.492;2024-03-29T10:31:33;5.28;;;0.30;;
36211;SDS011;22247;48.586;13.492;2024-03-29T10:34:02;0.43;;;0.20;;
36211;SDS011;22247;48.586;13.492;2024-03-29T10:36:27;0.70;;;0.20;;
36211;SDS011;22247;48.586;13.492;2024-03-29T10:38:54;0.70;;;0.30;;
36211;SDS011;22247;48.586;13.492;2024-03-29T10:41:19;0.47;;;0.20;;
36211;SDS011;22247;48.586;13.492;2024-03-29T10:43:44;0.95;;;0.20;;
36211;SDS011;22247;48.586;13.492;2024-03-29T10:46:12;0.40;;;0.20;;
36211;SDS011;22247;48.586;13.492;2024-03-29T10:48:37;0.25;;;0.10;;
36211;SDS011;22247;48.586;13.492;2024-03-29T10:51:03;0.88;;;0.30;;
36211;SDS011;22247;48.586;13.492;2024-03-29T10:53:29;0.20;;;0.20;;
36211;SDS011;22247;48.586;13.492;2024-03-29T10:55:54;0.93;;;0.38;;
36211;SDS011;22247;48.586;13.492;2024-03-29T10:58:21;0.80;;;0.32;;
36211;SDS011;22247;48.586;13.492;2024-03-29T11:00:48;0.38;;;0.20;;
36211;SDS011;22247;48.586;13.492;2024-03-29T11:03:20;2.38;;;0.70;;
36211;SDS011;22247;48.586;13.492;2024-03-29T11:05:51;1.05;;;0.20;;
36211;SDS011;22247;48.586;13.492;2024-03-29T11:08:18;0.73;;;0.20;;
36211;SDS011;22247;48.586;13.492;2024-03-29T11:10:45;1.45;;;0.30;;
36211;SDS011;22247;48.586;13.492;2024-03-29T11:13:19;1.85;;;0.20;;
36211;SDS011;22247;48.586;13.492;2024-03-29T11:15:47;0.83;;;0.20;;
36211;SDS011;22247;48.586;13.492;2024-03-29T11:18:12;3.58;;;0.25;;
36211;SDS011;22247;48.586;13.492;2024-03-29T11:20:40;0.70;;;0.28;;
36211;SDS011;22247;48.586;13.492;2024-03-29T11:23:08;0.50;;;0.20;;
36211;SDS011;22247;48.586;13.492;2024-03-29T11:25:52;0.63;;;0.22;;
36211;SDS011;22247;48.586;13.492;2024-03-29T11:30:50;1.10;;;0.30;;
36211;SDS011;22247;48.586;13.492;2024-03-29T11:35:51;0.60;;;0.40;;
36211;SDS011;22247;48.586;13.492;2024-03-29T11:38:30;0.50;;;0.30;;
36211;SDS011;22247;48.586;13.492;2024-03-29T11:43:27;0.63;;;0.30;;
36211;SDS011;22247;48.586;13.492;2024-03-29T11:45:52;1.65;;;0.68;;
36211;SDS011;22247;48.586;13.492;2024-03-29T11:48:20;1.27;;;0.28;;
36211;SDS011;22247;48.586;13.492;2024-03-29T11:53:21;2.22;;;0.80;;
36211;SDS011;22247;48.586;13.492;2024-03-29T12:03:31;4.45;;;0.32;;
36211;SDS011;22247;48.586;13.492;2024-03-29T12:05:58;1.80;;;0.55;;
36211;SDS011;22247;48.586;13.492;2024-03-29T12:10:53;0.85;;;0.50;;
36211;SDS011;22247;48.586;13.492;2024-03-29T12:13:19;0.40;;;0.20;;
36211;SDS011;22247;48.586;13.492;2024-03-29T12:33:51;3.10;;;0.40;;
36211;SDS011;22247;48.586;13.492;2024-03-29T12:36:17;0.90;;;0.35;;
36211;SDS011;22247;48.586;13.492;2024-03-29T12:38:44;0.35;;;0.20;;
36211;SDS011;22247;48.586;13.492;2024-03-29T12:41:16;1.55;;;0.38;;
36211;SDS011;22247;48.586;13.492;2024-03-29T12:43:41;1.60;;;0.30;;
36211;SDS011;22247;48.586;13.492;2024-03-29T12:46:09;2.45;;;0.40;;
36211;SDS011;22247;48.586;13.492;2024-03-29T12:48:35;0.82;;;0.32;;
36211;SDS011;22247;48.586;13.492;2024-03-29T12:51:00;0.50;;;0.30;;
36211;SDS011;22247;48.586;13.492;2024-03-29T12:53:25;1.10;;;0.40;;
36211;SDS011;22247;48.586;13.492;2024-03-29T12:55:54;1.35;;;0.20;;
36211;SDS011;22247;48.586;13.492;2024-03-29T12:58:19;1.25;;;0.20;;
36211;SDS011;22247;48.586;13.492;2024-03-29T13:00:46;2.60;;;0.50;;
36211;SDS011;22247;48.586;13.492;2024-03-29T13:03:11;2.17;;;0.30;;
36211;SDS011;22247;48.586;13.492;2024-03-29T13:05:37;2.25;;;0.38;;
36211;SDS011;22247;48.586;13.492;2024-03-29T13:08:10;1.48;;;0.30;;
36211;SDS011;22247;48.586;13.492;2024-03-29T13:10:36;3.28;;;0.30;;
36211;SDS011;22247;48.586;13.492;2024-03-29T13:13:01;0.77;;;0.30;;
36211;SDS011;22247;48.586;13.492;2024-03-29T13:15:26;0.50;;;0.30;;
36211;SDS011;22247;48.586;13.492;2024-03-29T13:17:53;1.45;;;0.63;;
36211;SDS011;22247;48.586;13.492;2024-03-29T13:20:18;3.03;;;0.40;;
36211;SDS011;22247;48.586;13.492;2024-03-29T13:22:47;1.45;;;0.40;;
36211;SDS011;22247;48.586;13.492;2024-03-29T13:25:13;0.82;;;0.30;;
36211;SDS011;22247;48.586;13.492;2024-03-29T13:27:39;48.05;;;3.60;;
36211;SDS011;22247;48.586;13.492;2024-03-29T13:30:07;11.40;;;1.02;;
36211;SDS011;22247;48.586;13.492;2024-03-29T13:32:34;2.00;;;0.93;;
36211;SDS011;22247;48.586;13.492;2024-03-29T13:34:59;9.07;;;0.30;;
36211;SDS011;22247;48.586;13.492;2024-03-29T13:37:24;1.40;;;0.35;;
36211;SDS011;22247;48.586;13.492;2024-03-29T13:39:51;2.83;;;0.30;;
36211;SDS011;22247;48.586;13.492;2024-03-29T13:42:16;2.35;;;0.40;;
36211;SDS011;22247;48.586;13.492;2024-03-29T13:44:41;1.05;;;0.30;;
36211;SDS011;22247;48.586;13.492;2024-03-29T13:47:06;0.90;;;0.30;;
36211;SDS011;22247;48.586;13.492;2024-03-29T13:49:31;2.97;;;0.40;;
36211;SDS011;22247;48.586;13.492;2024-03-29T13:51:56;1.75;;;0.20;;
36211;SDS011;22247;48.586;13.492;2024-03-29T13:54:21;1.10;;;0.50;;
36211;SDS011;22247;48.586;13.492;2024-03-29T13:56:46;1.50;;;0.30;;
36211;SDS011;22247;48.586;13.492;2024-03-29T13:59:14;0.88;;;0.28;;
36211;SDS011;22247;48.586;13.492;2024-03-29T14:01:39;1.05;;;0.45;;
36211;SDS011;22247;48.586;13.492;2024-03-29T14:04:04;4.88;;;0.52;;
36211;SDS011;22247;48.586;13.492;2024-03-29T14:06:29;0.75;;;0.30;;
36211;SDS011;22247;48.586;13.492;2024-03-29T14:08:54;3.35;;;0.47;;
36211;SDS011;22247;48.586;13.492;2024-03-29T14:11:19;1.05;;;0.40;;
36211;SDS011;22247;48.586;13.492;2024-03-29T14:13:44;1.48;;;0.40;;
36211;SDS011;22247;48.586;13.492;2024-03-29T14:16:13;3.08;;;0.47;;
36211;SDS011;22247;48.586;13.492;2024-03-29T14:18:40;3.28;;;0.50;;
36211;SDS011;22247;48.586;13.492;2024-03-29T14:21:05;0.82;;;0.50;;
36211;SDS011;22247;48.586;13.492;2024-03-29T14:23:30;0.88;;;0.40;;
36211;SDS011;22247;48.586;13.492;2024-03-29T14:25:55;17.35;;;0.82;;
36211;SDS011;22247;48.586;13.492;2024-03-29T14:28:21;1.08;;;0.30;;
36211;SDS011;22247;48.586;13.492;2024-03-29T14:30:46;3.80;;;0.50;;
36211;SDS011;22247;48.586;13.492;2024-03-29T14:33:11;3.50;;;0.70;;
36211;SDS011;22247;48.586;13.492;2024-03-29T14:35:36;3.75;;;0.32;;
36211;SDS011;22247;48.586;13.492;2024-03-29T14:38:01;3.33;;;0.50;;
36211;SDS011;22247;48.586;13.492;2024-03-29T14:40:26;0.60;;;0.25;;
36211;SDS011;22247;48.586;13.492;2024-03-29T14:42:51;2.22;;;0.50;;
36211;SDS011;22247;48.586;13.492;2024-03-29T14:45:18;2.97;;;0.47;;
36211;SDS011;22247;48.586;13.492;2024-03-29T14:47:43;1.30;;;0.40;;
36211;SDS011;22247;48.586;13.492;2024-03-29T14:50:08;5.28;;;0.40;;
36211;SDS011;22247;48.586;13.492;2024-03-29T14:52:34;0.93;;;0.20;;
36211;SDS011;22247;48.586;13.492;2024-03-29T14:54:59;1.45;;;0.40;;
36211;SDS011;22247;48.586;13.492;2024-03-29T14:57:24;4.03;;;0.40;;
36211;SDS011;22247;48.586;13.492;2024-03-29T14:59:49;0.98;;;0.45;;
36211;SDS011;22247;48.586;13.492;2024-03-29T15:02:14;0.60;;;0.30;;
36211;SDS011;22247;48.586;13.492;2024-03-29T15:04:39;0.65;;;0.30;;
36211;SDS011;22247;48.586;13.492;2024-03-29T15:07:05;0.93;;;0.35;;
36211;SDS011;22247;48.586;13.492;2024-03-29T15:09:30;2.38;;;0.50;;
36211;SDS011;22247;48.586;13.492;2024-03-29T15:11:55;1.63;;;0.50;;
36211;SDS011;22247;48.586;13.492;2024-03-29T15:14:20;3.50;;;0.45;;
36211;SDS011;22247;48.586;13.492;2024-03-29T15:16:45;0.95;;;0.55;;
36211;SDS011;22247;48.586;13.492;2024-03-29T15:19:11;3.05;;;0.50;;
36211;SDS011;22247;48.586;13.492;2024-03-29T15:21:36;0.50;;;0.30;;
36211;SDS011;22247;48.586;13.492;2024-03-29T15:24:03;1.52;;;0.40;;
36211;SDS011;22247;48.586;13.492;2024-03-29T15:26:28;2.40;;;0.57;;
36211;SDS011;22247;48.586;13.492;2024-03-29T15:28:53;1.00;;;0.50;;
36211;SDS011;22247;48.586;13.492;2024-03-29T15:31:37;2.70;;;0.60;;
36211;SDS011;22247;48.586;13.492;2024-03-29T15:34:02;1.77;;;0.50;;
36211;SDS011;22247;48.586;13.492;2024-03-29T15:36:28;2.78;;;0.30;;
36211;SDS011;22247;48.586;13.492;2024-03-29T15:38:53;1.45;;;0.70;;
36211;SDS011;22247;48.586;13.492;2024-03-29T15:41:36;1.38;;;0.50;;
36211;SDS011;22247;48.586;13.492;2024-03-29T15:44:03;1.58;;;0.43;;
36211;SDS011;22247;48.586;13.492;2024-03-29T15:46:28;3.22;;;0.75;;
36211;SDS011;22247;48.586;13.492;2024-03-29T15:48:53;1.52;;;0.50;;
36211;SDS011;22247;48.586;13.492;2024-03-29T15:51:21;2.42;;;0.40;;
36211;SDS011;22247;48.586;13.492;2024-03-29T15:53:47;1.23;;;0.40;;
36211;SDS011;22247;48.586;13.492;2024-03-29T15:56:15;3.40;;;0.47;;
36211;SDS011;22247;48.586;13.492;2024-03-29T15:58:40;3.67;;;0.55;;
36211;SDS011;22247;48.586;13.492;2024-03-29T16:01:06;0.82;;;0.43;;
36211;SDS011;22247;48.586;13.492;2024-03-29T16:03:33;2.60;;;0.35;;
36211;SDS011;22247;48.586;13.492;2024-03-29T16:06:00;3.15;;;0.50;;